Time;durP1;ratioP1;P1;durP2;ratioP2;P2;SDS_P1;SDS_P2;PMS_P1;PMS_P2;Temp;Humidity;BMP_temperature;BMP_pressure;BME280_temperature;BME280_humidity;BME280_pressure;Samples;Min_cycle;Max_cycle;Signal;HPM_P1;HPM_P2
2021/01/22 00:00:59;;;;;;;5.25;2.60;;;;;;;6.06;53.62;93937.38;4935361;28;20102;-38
2021/01/22 00:03:25;;;;;;;6.28;2.88;;;;;;;6.45;52.77;93950.81;4936005;29;20649;-37
2021/01/22 00:05:52;;;;;;;4.80;2.67;;;;;;;6.71;51.40;93948.22;4935521;28;20056;-39
2021/01/22 00:08:18;;;;;;;4.65;2.55;;;;;;;6.82;51.44;93956.50;4949890;29;20079;-38
2021/01/22 00:10:44;;;;;;;5.05;2.47;;;;;;;6.97;50.65;93982.50;4936058;28;20134;-38
2021/01/22 00:13:11;;;;;;;5.32;2.60;;;;;;;6.64;50.88;94030.63;4936813;28;20130;-39
2021/01/22 00:15:38;;;;;;;6.20;3.10;;;;;;;6.19;52.30;94007.81;4936058;28;20090;-38
2021/01/22 00:18:05;;;;;;;6.80;4.00;;;;;;;6.13;53.28;94036.84;4936668;28;20131;-38
2021/01/22 00:20:31;;;;;;;9.45;4.82;;;;;;;5.84;54.10;94012.00;4920787;29;20055;-38
2021/01/22 00:22:58;;;;;;;6.57;4.20;;;;;;;6.02;53.30;94030.47;4917189;29;20055;-38
2021/01/22 00:25:24;;;;;;;7.03;3.83;;;;;;;6.24;52.68;94040.56;4928471;29;20097;-37
2021/01/22 00:27:50;;;;;;;8.80;4.32;;;;;;;6.50;52.36;94033.78;4935486;28;20577;-38
2021/01/22 00:30:17;;;;;;;7.28;4.10;;;;;;;6.52;51.71;94015.41;4935107;29;20446;-39
2021/01/22 00:32:43;;;;;;;7.32;4.53;;;;;;;6.59;51.96;94037.06;4935084;28;20091;-39
2021/01/22 00:35:10;;;;;;;7.53;4.05;;;;;;;6.66;51.45;94034.53;4934832;28;20122;-37
2021/01/22 00:37:37;;;;;;;6.70;4.18;;;;;;;6.74;51.40;94030.84;4934547;28;20055;-38
2021/01/22 00:40:05;;;;;;;7.47;4.25;;;;;;;6.60;51.63;94032.44;4935224;28;20446;-39
2021/01/22 00:42:34;;;;;;;10.25;4.40;;;;;;;6.76;51.33;94036.66;4935085;29;20086;-39
2021/01/22 00:45:04;;;;;;;7.40;4.75;;;;;;;6.70;51.53;94027.31;4935141;29;20054;-38
2021/01/22 00:47:32;;;;;;;7.68;4.53;;;;;;;6.83;51.19;94025.25;4935196;28;20505;-39
2021/01/22 00:49:58;;;;;;;9.43;4.25;;;;;;;6.28;52.33;94011.88;4928714;28;20517;-38
2021/01/22 00:52:26;;;;;;;6.93;4.22;;;;;;;6.46;51.90;94009.53;4920716;29;20056;-37
2021/01/22 00:54:53;;;;;;;8.48;3.83;;;;;;;6.57;51.93;94006.31;4922764;29;20056;-38
2021/01/22 00:57:52;;;;;;;6.20;3.67;;;;;;;6.57;51.54;93990.97;4923961;29;20056;-38
2021/01/22 01:00:24;;;;;;;5.43;3.45;;;;;;;6.67;51.28;93997.69;4931504;29;20048;-37
2021/01/22 01:03:13;;;;;;;7.03;3.70;;;;;;;6.62;51.25;93993.34;4920141;29;20142;-38
2021/01/22 01:05:39;;;;;;;7.85;3.95;;;;;;;6.72;50.98;93976.66;4948760;29;20164;-37
2021/01/22 01:08:07;;;;;;;6.20;3.50;;;;;;;6.91;50.34;93967.03;4933912;29;20429;-39
2021/01/22 01:10:53;;;;;;;6.30;3.85;;;;;;;6.95;50.59;93963.25;4934925;29;20064;-39
2021/01/22 01:13:34;;;;;;;6.38;3.60;;;;;;;7.05;50.21;93969.19;4945049;28;20059;-39
2021/01/22 01:16:21;;;;;;;6.07;3.47;;;;;;;6.86;50.73;93960.03;4930222;29;20049;-39
2021/01/22 01:18:47;;;;;;;8.88;3.72;;;;;;;6.79;51.29;93973.31;4915850;29;20116;-40
2021/01/22 01:21:14;;;;;;;6.35;3.60;;;;;;;6.74;51.27;93981.69;4934839;29;20063;-39
2021/01/22 01:23:40;;;;;;;4.65;3.22;;;;;;;6.96;51.02;93983.66;4938382;29;20150;-38
2021/01/22 01:26:07;;;;;;;4.57;2.97;;;;;;;7.03;50.57;93985.69;4938767;29;20044;-37
2021/01/22 01:28:33;;;;;;;4.22;2.50;;;;;;;6.99;50.81;93980.25;4920627;29;20084;-38
2021/01/22 01:31:00;;;;;;;4.47;2.55;;;;;;;6.98;50.41;93977.91;4937704;28;20122;-38
2021/01/22 01:33:26;;;;;;;4.90;2.75;;;;;;;7.14;49.94;93965.13;4951766;28;20055;-38
2021/01/22 01:35:53;;;;;;;4.88;2.60;;;;;;;7.32;49.76;93968.13;4937294;29;20135;-37
2021/01/22 01:38:19;;;;;;;4.47;2.60;;;;;;;6.87;50.84;93956.22;4937010;29;20166;-38
2021/01/22 01:40:46;;;;;;;4.07;2.80;;;;;;;7.08;50.28;93960.41;4920912;29;20573;-38
2021/01/22 01:43:13;;;;;;;3.70;1.90;;;;;;;7.21;49.62;93965.28;4944119;29;20055;-38
2021/01/22 01:45:41;;;;;;;4.57;2.90;;;;;;;7.28;50.28;93967.31;4950277;29;20070;-38
2021/01/22 01:48:09;;;;;;;5.60;2.40;;;;;;;7.44;49.78;93961.78;4949887;29;20063;-38
2021/01/22 01:50:38;;;;;;;4.93;2.70;;;;;;;7.57;49.38;93965.84;4938839;28;20347;-39
2021/01/22 01:53:06;;;;;;;3.40;2.30;;;;;;;7.38;49.80;93928.25;4927049;29;20111;-38
2021/01/22 01:55:34;;;;;;;4.75;2.65;;;;;;;7.66;48.98;93958.28;4937568;28;20048;-38
2021/01/22 01:58:03;;;;;;;4.03;2.60;;;;;;;7.87;48.11;93951.69;4937423;29;20413;-38
2021/01/22 02:00:32;;;;;;;6.18;2.40;;;;;;;7.64;48.73;93922.91;4933513;29;20489;-37
2021/01/22 02:02:58;;;;;;;4.45;2.45;;;;;;;7.93;48.09;93931.38;4937226;29;20553;-37
2021/01/22 02:05:25;;;;;;;4.05;2.40;;;;;;;7.79;48.77;93928.47;4937714;29;20055;-37
2021/01/22 02:07:51;;;;;;;4.57;2.85;;;;;;;7.78;48.83;93933.09;4936432;29;20130;-37
2021/01/22 02:10:18;;;;;;;3.97;2.40;;;;;;;7.70;49.60;93920.66;4937291;29;20421;-38
2021/01/22 02:12:46;;;;;;;4.60;2.58;;;;;;;7.67;48.87;93932.94;4936500;29;20066;-38
2021/01/22 02:15:15;;;;;;;3.80;2.08;;;;;;;7.69;49.11;93933.34;4938195;29;20134;-37
2021/01/22 02:17:42;;;;;;;3.83;2.17;;;;;;;7.75;49.62;93933.81;4922197;29;20448;-37
2021/01/22 02:20:15;;;;;;;3.25;2.13;;;;;;;7.89;48.83;93935.91;4929224;29;20044;-38
2021/01/22 02:22:42;;;;;;;5.05;2.53;;;;;;;7.90;48.98;93940.19;4937826;29;20067;-37
2021/01/22 02:25:11;;;;;;;3.78;2.05;;;;;;;8.10;48.26;93938.91;4936540;29;20051;-37
2021/01/22 02:27:38;;;;;;;3.67;1.90;;;;;;;8.05;48.01;93947.31;4938043;29;20422;-37
2021/01/22 02:30:06;;;;;;;3.95;1.80;;;;;;;7.96;48.26;93946.78;4937088;28;20052;-38
2021/01/22 02:32:34;;;;;;;4.03;2.38;;;;;;;7.42;50.76;93985.59;4953774;29;20146;-38
2021/01/22 02:35:08;;;;;;;3.70;2.28;;;;;;;6.94;51.75;93985.91;4936801;29;20059;-38
2021/01/22 02:37:35;;;;;;;;;;;;;;;7.25;50.62;93976.84;4939616;29;20044;-39
2021/01/22 02:40:07;;;;;;;4.47;2.38;;;;;;;7.42;50.43;93962.16;4921250;29;19927;-39
2021/01/22 02:42:35;;;;;;;4.10;2.10;;;;;;;7.59;49.69;93958.19;4918534;29;20070;-38
2021/01/22 02:45:03;;;;;;;3.63;2.00;;;;;;;7.83;49.01;93961.59;4935066;29;20060;-39
2021/01/22 02:47:30;;;;;;;4.88;2.20;;;;;;;7.76;49.94;93975.72;4923255;29;20052;-39
2021/01/22 02:49:56;;;;;;;3.60;2.58;;;;;;;7.79;49.11;93976.94;4932802;29;20518;-39
2021/01/22 02:52:22;;;;;;;4.15;2.22;;;;;;;7.77;49.26;93965.75;4936459;28;20268;-39
2021/01/22 02:54:50;;;;;;;4.15;1.98;;;;;;;7.70;49.78;93964.50;4950646;29;20083;-39
2021/01/22 02:57:35;;;;;;;4.32;2.30;;;;;;;7.92;48.83;93980.97;4935818;29;20060;-40
2021/01/22 03:00:09;;;;;;;4.90;2.15;;;;;;;7.91;49.09;93982.88;4931512;29;20406;-39
2021/01/22 03:02:53;;;;;;;2.95;1.77;;;;;;;7.84;49.46;93987.41;4936699;29;20079;-39
2021/01/22 03:05:23;;;;;;;3.08;1.92;;;;;;;7.82;50.04;93992.38;4935822;29;20058;-39
2021/01/22 03:07:54;;;;;;;3.63;2.03;;;;;;;7.85;50.02;93997.03;4937249;29;20052;-38
2021/01/22 03:10:24;;;;;;;4.57;1.83;;;;;;;7.57;50.02;94024.25;4936586;29;20048;-39
2021/01/22 03:12:52;;;;;;;3.50;2.50;;;;;;;7.53;50.43;94024.19;4934736;29;20059;-39
2021/01/22 03:15:20;;;;;;;3.28;1.77;;;;;;;7.77;49.90;94009.59;4917660;29;20525;-39
2021/01/22 03:17:46;;;;;;;2.63;1.73;;;;;;;7.84;49.35;94017.03;4929094;29;20633;-39
2021/01/22 03:20:19;;;;;;;3.28;2.00;;;;;;;7.87;49.69;94021.69;4924612;28;20075;-39
2021/01/22 03:22:46;;;;;;;3.60;1.95;;;;;;;8.07;49.00;94025.84;4917671;29;20131;-38
2021/01/22 03:25:13;;;;;;;3.33;1.65;;;;;;;7.81;49.71;94020.44;4917230;29;20072;-39
2021/01/22 03:27:40;;;;;;;2.75;1.60;;;;;;;7.79;50.55;94031.53;4933641;29;20506;-38
2021/01/22 03:30:08;;;;;;;3.25;1.80;;;;;;;7.49;50.97;94039.50;4917636;29;20135;-38
2021/01/22 03:32:34;;;;;;;3.75;1.60;;;;;;;7.41;52.06;94037.81;4931490;29;20055;-38
2021/01/22 03:35:01;;;;;;;3.05;1.45;;;;;;;7.61;51.94;94052.81;4935310;29;20115;-39
2021/01/22 03:37:28;;;;;;;5.40;1.85;;;;;;;7.59;51.66;94054.28;4934248;29;20054;-38
2021/01/22 03:39:54;;;;;;;2.15;1.38;;;;;;;7.47;51.88;94047.97;4940877;29;20450;-38
2021/01/22 03:42:20;;;;;;;3.20;1.30;;;;;;;7.44;52.30;94047.88;4945592;29;20055;-39
2021/01/22 03:44:47;;;;;;;3.30;1.50;;;;;;;7.31;52.66;94057.25;4935730;29;20476;-39
2021/01/22 03:47:13;;;;;;;4.43;1.70;;;;;;;7.29;52.90;94046.84;4935101;29;20155;-39
2021/01/22 03:49:39;;;;;;;1.70;1.10;;;;;;;7.33;52.36;94041.53;4935511;29;20062;-38
2021/01/22 03:52:06;;;;;;;2.80;1.50;;;;;;;7.29;52.98;94043.41;4936024;28;20083;-38
2021/01/22 03:54:32;;;;;;;2.40;1.40;;;;;;;7.32;52.39;94038.06;4935970;29;20485;-38
2021/01/22 03:56:58;;;;;;;2.58;1.50;;;;;;;7.35;52.52;94033.91;4933544;29;20048;-38
2021/01/22 03:59:25;;;;;;;1.83;1.27;;;;;;;7.16;52.97;94022.03;4934459;28;20169;-38
2021/01/22 04:01:51;;;;;;;3.08;1.40;;;;;;;7.32;52.94;94024.63;4934674;29;20086;-38
2021/01/22 04:04:18;;;;;;;4.22;1.40;;;;;;;7.52;52.48;94027.25;4935374;29;20055;-38
2021/01/22 04:07:00;;;;;;;2.50;1.27;;;;;;;7.20;53.54;94030.94;4948648;29;20051;-38
2021/01/22 04:09:29;;;;;;;2.30;1.25;;;;;;;7.22;54.51;94020.59;4935529;29;20075;-38
2021/01/22 04:11:56;;;;;;;3.30;1.50;;;;;;;7.33;54.20;94015.41;4920790;28;20083;-38
2021/01/22 04:14:23;;;;;;;2.40;1.40;;;;;;;7.31;54.42;94008.81;4925300;29;20059;-38
2021/01/22 04:16:53;;;;;;;2.22;1.20;;;;;;;7.26;54.92;94010.69;4934624;29;20532;-38
2021/01/22 04:19:20;;;;;;;3.03;1.25;;;;;;;7.35;54.73;94004.31;4933978;28;20417;-38
2021/01/22 04:21:46;;;;;;;2.47;1.30;;;;;;;7.20;55.32;94005.97;4935117;28;20138;-38
2021/01/22 04:24:12;;;;;;;2.10;1.02;;;;;;;7.25;55.61;94003.75;4934206;28;20063;-38
2021/01/22 04:26:41;;;;;;;3.10;1.23;;;;;;;7.32;55.26;93994.25;4934772;29;20130;-37
2021/01/22 04:29:08;;;;;;;2.53;1.20;;;;;;;7.34;55.30;93989.28;4927101;29;20057;-37
2021/01/22 04:31:34;;;;;;;2.53;1.20;;;;;;;7.30;55.69;93994.59;4935474;29;20059;-37
2021/01/22 04:34:01;;;;;;;4.25;1.60;;;;;;;7.45;55.52;93995.63;4936149;29;20147;-37
2021/01/22 04:36:27;;;;;;;2.97;1.17;;;;;;;7.40;55.87;93991.31;4935096;29;20118;-37
2021/01/22 04:38:54;;;;;;;3.75;1.20;;;;;;;7.28;55.95;93977.25;4934370;29;20058;-38
2021/01/22 04:41:20;;;;;;;2.08;1.17;;;;;;;7.27;56.43;93979.19;4935501;29;20083;-37
2021/01/22 04:43:46;;;;;;;1.92;1.30;;;;;;;7.23;56.60;93976.44;4933950;29;20115;-39
2021/01/22 04:46:15;;;;;;;2.50;1.20;;;;;;;7.22;56.68;93974.88;4934523;29;22030;-39
2021/01/22 04:48:41;;;;;;;3.42;1.30;;;;;;;7.35;56.50;93985.47;4948953;29;20059;-39
2021/01/22 04:51:08;;;;;;;1.73;1.05;;;;;;;7.34;56.65;93973.91;4916293;29;20507;-38
2021/01/22 04:53:37;;;;;;;3.45;1.20;;;;;;;7.41;56.78;93970.56;4930909;29;20085;-38
2021/01/22 04:56:06;;;;;;;2.85;1.30;;;;;;;7.33;57.19;93967.00;4934644;29;20087;-39
2021/01/22 04:58:36;;;;;;;1.80;1.02;;;;;;;7.40;57.20;93966.31;4922711;28;20414;-37
2021/01/22 05:01:03;;;;;;;1.58;0.93;;;;;;;7.33;57.63;93971.59;4934770;28;20479;-39
2021/01/22 05:03:30;;;;;;;2.17;1.15;;;;;;;7.46;57.15;93964.88;4933608;28;20052;-38
2021/01/22 05:05:57;;;;;;;1.75;1.00;;;;;;;7.48;57.26;93962.63;4933507;29;20043;-38
2021/01/22 05:08:24;;;;;;;1.60;1.00;;;;;;;7.68;56.93;93949.84;4933395;28;20492;-38
2021/01/22 05:10:50;;;;;;;3.40;1.00;;;;;;;7.81;56.70;93937.75;4934883;29;20081;-37
2021/01/22 05:13:17;;;;;;;1.48;0.90;;;;;;;7.72;56.69;93935.31;4933557;29;20060;-38
2021/01/22 05:16:15;;;;;;;1.27;1.00;;;;;;;7.85;56.58;93930.50;4915832;29;20051;-38
2021/01/22 05:18:42;;;;;;;2.08;0.93;;;;;;;7.84;56.55;93926.25;4933579;29;20158;-38
2021/01/22 05:21:10;;;;;;;1.17;0.90;;;;;;;7.90;56.25;93930.19;4930740;29;20216;-38
2021/01/22 05:23:38;;;;;;;1.27;0.80;;;;;;;7.97;56.27;93924.13;4945701;29;20067;-39
2021/01/22 05:26:10;;;;;;;1.65;0.90;;;;;;;7.79;56.37;93923.09;4934342;29;20062;-38
2021/01/22 05:28:47;;;;;;;5.43;1.08;;;;;;;7.83;56.27;93918.53;4934979;29;20720;-39
2021/01/22 05:31:16;;;;;;;1.17;0.82;;;;;;;7.70;56.42;93913.38;4930722;28;20156;-38
2021/01/22 05:33:57;;;;;;;2.85;0.90;;;;;;;7.79;56.44;93915.00;4915587;29;20104;-38
2021/01/22 05:36:26;;;;;;;1.73;1.00;;;;;;;7.97;55.90;93919.50;4920691;29;20151;-39
2021/01/22 05:38:54;;;;;;;2.03;0.95;;;;;;;7.99;55.83;93921.81;4949022;29;20051;-39
2021/01/22 05:41:21;;;;;;;1.27;0.90;;;;;;;7.98;55.80;93909.50;4933780;28;20051;-39
2021/01/22 05:43:49;;;;;;;1.60;1.15;;;;;;;7.99;55.58;93904.91;4934260;28;20050;-39
2021/01/22 05:46:21;;;;;;;1.38;0.75;;;;;;;7.87;56.07;93903.22;4933145;29;20094;-39
2021/01/22 05:48:47;;;;;;;3.05;0.80;;;;;;;7.86;55.88;93896.25;4933726;29;20505;-38
2021/01/22 05:51:14;;;;;;;1.48;0.73;;;;;;;7.86;56.07;93890.88;4924393;29;20058;-39
2021/01/22 05:53:48;;;;;;;1.60;0.90;;;;;;;7.80;56.19;93897.72;4934150;28;20047;-39
2021/01/22 05:56:18;;;;;;;1.95;0.95;;;;;;;7.86;56.23;93896.25;4932564;29;20434;-38
2021/01/22 05:58:48;;;;;;;2.00;1.10;;;;;;;7.79;55.86;93886.16;4933861;29;20055;-38
2021/01/22 06:01:16;;;;;;;2.17;1.08;;;;;;;7.80;56.34;93905.78;4925505;28;20130;-38
2021/01/22 06:03:47;;;;;;;2.80;1.20;;;;;;;7.87;56.14;93909.38;4915499;29;20054;-38
2021/01/22 06:06:15;;;;;;;3.17;1.10;;;;;;;7.91;55.98;93912.88;4915324;29;20522;-39
2021/01/22 06:08:50;;;;;;;2.47;1.17;;;;;;;7.94;55.88;93908.69;4938769;29;20059;-39
2021/01/22 06:11:17;;;;;;;2.60;1.20;;;;;;;7.73;56.14;93899.19;4942805;29;20120;-39
2021/01/22 06:13:49;;;;;;;4.75;1.40;;;;;;;7.82;55.90;93892.75;4940412;29;20139;-39
2021/01/22 06:16:20;;;;;;;2.33;1.20;;;;;;;7.64;56.29;93885.22;4928949;29;20048;-39
2021/01/22 06:18:54;;;;;;;3.67;1.30;;;;;;;7.74;56.00;93875.75;4934108;29;20056;-39
2021/01/22 06:21:24;;;;;;;2.15;1.25;;;;;;;7.65;56.07;93873.31;4934542;29;20044;-39
2021/01/22 06:23:52;;;;;;;4.35;1.60;;;;;;;7.74;55.77;93867.66;4926332;29;20054;-38
2021/01/22 06:26:19;;;;;;;3.38;1.73;;;;;;;7.92;55.25;93863.25;4938813;29;20051;-39
2021/01/22 06:28:51;;;;;;;3.28;1.23;;;;;;;7.59;56.39;93866.69;4945668;29;20059;-38
2021/01/22 06:31:20;;;;;;;3.90;1.35;;;;;;;7.62;56.36;93875.94;4924135;29;20132;-39
2021/01/22 06:33:47;;;;;;;3.45;1.42;;;;;;;7.66;56.09;93877.53;4918901;29;20107;-39
2021/01/22 06:36:15;;;;;;;3.75;1.77;;;;;;;7.59;55.96;93858.59;4937138;29;20569;-39
2021/01/22 06:38:43;;;;;;;2.40;1.33;;;;;;;7.28;56.87;93864.28;4937277;28;20118;-39
2021/01/22 06:41:10;;;;;;;2.60;1.40;;;;;;;7.17;57.39;93882.97;4937482;29;20048;-38
2021/01/22 06:43:38;;;;;;;2.70;1.35;;;;;;;7.14;57.60;93868.31;4936434;29;20079;-39
2021/01/22 06:46:14;;;;;;;2.38;1.30;;;;;;;7.09;57.66;93871.31;4936621;29;20122;-38
2021/01/22 06:48:57;;;;;;;3.97;1.80;;;;;;;7.02;57.82;93871.22;4926007;29;20067;-38
2021/01/22 06:51:30;;;;;;;2.58;1.25;;;;;;;7.06;57.80;93882.78;4936198;29;20107;-37
2021/01/22 06:54:20;;;;;;;2.58;1.20;;;;;;;7.28;56.80;93873.16;4935894;28;20051;-39
2021/01/22 06:56:46;;;;;;;3.00;1.17;;;;;;;7.40;56.28;93885.63;4937576;28;20048;-39
2021/01/22 06:59:18;;;;;;;3.17;1.40;;;;;;;7.31;56.53;93890.47;4952487;29;20147;-39
2021/01/22 07:01:48;;;;;;;3.85;1.25;;;;;;;7.14;56.57;93889.06;4941907;28;20126;-40
2021/01/22 07:04:33;;;;;;;4.55;1.88;;;;;;;7.23;56.69;93890.38;4942252;29;20052;-38
2021/01/22 07:07:04;;;;;;;6.28;2.00;;;;;;;7.28;56.56;93904.63;4973334;23;20064;-40
2021/01/22 07:09:40;;;;;;;4.40;1.40;;;;;;;7.34;56.38;93895.91;4981339;28;20070;-39
2021/01/22 07:12:10;;;;;;;4.13;1.42;;;;;;;7.26;56.06;93883.50;4983776;28;20047;-39
2021/01/22 07:14:39;;;;;;;2.22;1.20;;;;;;;7.40;55.78;93899.06;4980556;28;20055;-40
2021/01/22 07:17:20;;;;;;;3.20;1.85;;;;;;;7.50;55.43;93898.44;4979028;28;20050;-39
2021/01/22 07:19:51;;;;;;;2.17;1.27;;;;;;;7.49;55.59;93907.66;4967931;28;20140;-39
2021/01/22 07:22:18;;;;;;;1.85;1.20;;;;;;;7.53;55.52;93911.19;4974207;28;20520;-39
2021/01/22 07:24:48;;;;;;;2.45;1.50;;;;;;;7.71;54.75;93917.59;4972781;28;20083;-39
2021/01/22 07:27:15;;;;;;;4.45;1.40;;;;;;;7.86;54.57;93912.41;4962218;28;20051;-40
2021/01/22 07:29:42;;;;;;;1.90;1.05;;;;;;;7.78;54.50;93910.78;4943773;29;20069;-40
2021/01/22 07:32:09;;;;;;;3.97;1.52;;;;;;;7.81;54.28;93926.22;4964244;28;20058;-39
2021/01/22 07:34:39;;;;;;;2.55;1.20;;;;;;;7.75;54.44;93919.56;4980217;28;20061;-39
2021/01/22 07:37:07;;;;;;;1.65;1.02;;;;;;;7.60;54.79;93921.28;4969689;28;20140;-40
2021/01/22 07:39:34;;;;;;;1.90;1.23;;;;;;;7.72;54.28;93927.22;4977322;28;20552;-40
2021/01/22 07:42:03;;;;;;;3.95;1.45;;;;;;;7.81;54.22;93928.91;4975617;28;20130;-40
2021/01/22 07:44:29;;;;;;;5.53;1.38;;;;;;;7.81;54.13;93916.22;4962475;28;20218;-40
2021/01/22 07:46:55;;;;;;;2.33;1.15;;;;;;;7.98;53.32;93925.66;4964956;28;20051;-40
2021/01/22 07:49:22;;;;;;;3.10;1.20;;;;;;;8.06;52.70;93915.75;4960025;28;20055;-41
2021/01/22 07:51:49;;;;;;;2.80;1.23;;;;;;;8.10;53.39;93947.00;4959544;28;20103;-40
2021/01/22 07:54:15;;;;;;;4.18;1.30;;;;;;;8.19;52.28;93923.25;4970449;28;20050;-42
2021/01/22 07:56:45;;;;;;;3.13;1.38;;;;;;;8.23;52.46;93927.91;4978544;28;20133;-40
2021/01/22 07:59:12;;;;;;;3.28;1.25;;;;;;;8.37;52.18;93915.38;4973041;28;20119;-39
2021/01/22 08:01:39;;;;;;;2.67;1.30;;;;;;;8.50;50.90;93917.88;4977097;28;20508;-40
2021/01/22 08:04:06;;;;;;;6.68;3.33;;;;;;;8.50;51.01;93921.34;4974805;28;20046;-39
2021/01/22 08:06:50;;;;;;;5.35;3.45;;;;;;;8.75;50.59;93918.94;4977422;28;20409;-39
2021/01/22 08:09:17;;;;;;;2.72;1.17;;;;;;;8.78;50.00;93922.81;4967451;28;20078;-39
2021/01/22 08:11:45;;;;;;;4.07;1.25;;;;;;;8.75;50.37;93923.53;4976193;28;20127;-40
2021/01/22 08:14:12;;;;;;;4.53;1.52;;;;;;;8.74;50.77;93917.38;4971132;28;20117;-39
2021/01/22 08:16:38;;;;;;;10.27;1.67;;;;;;;8.87;50.48;93921.38;4958695;28;20094;-42
2021/01/22 08:19:05;;;;;;;3.13;1.65;;;;;;;8.88;50.46;93917.50;4959802;28;20073;-41
2021/01/22 08:21:37;;;;;;;3.63;1.40;;;;;;;9.05;50.24;93921.53;4973024;28;20051;-40
2021/01/22 08:24:12;;;;;;;4.90;1.60;;;;;;;9.20;50.12;93925.13;4973750;28;20109;-40
2021/01/22 08:26:39;;;;;;;5.97;1.70;;;;;;;9.06;50.28;93935.78;4955741;28;20055;-41
2021/01/22 08:29:06;;;;;;;2.40;1.30;;;;;;;9.06;50.44;93935.78;4967397;28;20105;-40
2021/01/22 08:31:33;;;;;;;4.57;1.40;;;;;;;8.94;50.50;93926.06;4970381;28;20054;-41
2021/01/22 08:34:00;;;;;;;4.82;1.58;;;;;;;8.79;51.05;93916.25;4971185;28;20059;-41
2021/01/22 08:36:28;;;;;;;5.80;1.50;;;;;;;8.59;51.66;93921.84;4954375;28;20059;-43
2021/01/22 08:38:56;;;;;;;6.20;1.90;;;;;;;8.78;51.46;93928.97;4965054;28;20424;-42
2021/01/22 08:41:25;;;;;;;3.90;1.35;;;;;;;8.85;51.24;93920.19;4964786;28;20106;-41
2021/01/22 08:43:53;;;;;;;4.70;1.50;;;;;;;8.73;51.40;93915.03;4973598;28;20099;-40
2021/01/22 08:46:24;;;;;;;4.50;1.10;;;;;;;8.72;51.34;93918.88;4970998;28;20051;-40
2021/01/22 08:48:51;;;;;;;3.92;1.40;;;;;;;8.70;51.55;93913.06;4968851;28;20433;-38
2021/01/22 08:51:28;;;;;;;6.13;1.30;;;;;;;8.75;51.11;93901.97;4974852;28;20128;-41
2021/01/22 08:53:56;;;;;;;4.95;1.40;;;;;;;8.93;50.96;93902.13;4972732;28;20050;-41
2021/01/22 08:56:23;;;;;;;5.03;1.45;;;;;;;9.28;49.78;93909.78;4973525;28;20059;-45
2021/01/22 08:58:59;;;;;;;4.47;1.20;;;;;;;9.41;49.45;93899.47;4967476;28;20062;-38
2021/01/22 09:01:52;;;;;;;2.78;1.27;;;;;;;9.35;49.10;93891.72;4967940;28;20502;-39
2021/01/22 09:04:26;;;;;;;5.13;1.10;;;;;;;9.55;48.77;93894.16;4966575;28;20412;-39
2021/01/22 09:06:58;;;;;;;3.15;0.90;;;;;;;9.64;48.30;93897.31;4972721;28;20526;-39
2021/01/22 09:09:51;;;;;;;4.57;1.20;;;;;;;9.72;47.84;93898.16;4964104;28;20059;-40
2021/01/22 09:12:17;;;;;;;3.55;1.00;;;;;;;9.87;47.43;93899.78;4971576;28;20062;-40
2021/01/22 09:14:48;;;;;;;2.25;1.10;;;;;;;10.03;46.57;93902.97;4967326;28;20118;-39
2021/01/22 09:17:25;;;;;;;4.60;1.00;;;;;;;10.20;46.02;93906.91;4970079;28;20058;-38
2021/01/22 09:19:59;;;;;;;7.00;1.05;;;;;;;10.41;45.21;93906.25;4966920;28;20500;-39
2021/01/22 09:22:28;;;;;;;2.47;1.00;;;;;;;10.53;44.72;93910.56;4963570;28;20062;-38
2021/01/22 09:24:54;;;;;;;5.43;1.17;;;;;;;10.57;44.41;93916.00;4972224;28;20078;-39
2021/01/22 09:27:21;;;;;;;2.58;0.85;;;;;;;10.60;43.86;93890.88;4971582;28;20061;-39
2021/01/22 09:29:48;;;;;;;5.85;1.20;;;;;;;10.76;43.14;93904.84;4968476;28;20073;-39
2021/01/22 09:32:14;;;;;;;1.63;0.90;;;;;;;10.73;42.89;93900.19;4974307;28;20062;-39
2021/01/22 09:34:41;;;;;;;7.18;0.95;;;;;;;10.76;42.90;93907.56;4967797;28;20475;-40
2021/01/22 09:37:08;;;;;;;3.30;0.90;;;;;;;11.02;41.80;93911.06;4965894;28;20071;-40
2021/01/22 09:39:46;;;;;;;5.13;0.90;;;;;;;10.84;42.38;93911.81;4955382;28;20051;-39
2021/01/22 09:42:12;;;;;;;3.33;0.90;;;;;;;10.86;42.04;93901.38;4961109;28;20104;-40
2021/01/22 09:44:38;;;;;;;3.58;0.93;;;;;;;10.76;42.40;93902.91;4969439;28;20110;-40
2021/01/22 09:47:05;;;;;;;3.80;1.00;;;;;;;10.76;42.41;93907.56;4965813;28;20043;-39
2021/01/22 09:49:31;;;;;;;2.03;0.82;;;;;;;10.52;42.98;93896.25;4970405;28;20151;-39
2021/01/22 09:51:58;;;;;;;4.03;1.00;;;;;;;10.63;42.77;93900.94;4957803;28;20134;-39
2021/01/22 09:54:24;;;;;;;3.78;1.15;;;;;;;10.66;42.98;93887.44;4967150;28;20667;-40
2021/01/22 09:56:51;;;;;;;3.47;1.08;;;;;;;10.81;42.62;93880.09;4974630;28;20101;-42
2021/01/22 09:59:17;;;;;;;3.92;1.17;;;;;;;10.52;42.83;93858.41;4965703;28;20135;-40
2021/01/22 10:01:44;;;;;;;3.30;1.10;;;;;;;10.80;42.30;93883.97;4969504;28;20557;-40
2021/01/22 10:04:10;;;;;;;2.72;0.90;;;;;;;10.90;41.94;93880.53;4952450;28;20207;-40
2021/01/22 10:06:38;;;;;;;3.15;1.08;;;;;;;10.90;42.07;93875.09;4968712;28;20059;-40
2021/01/22 10:09:09;;;;;;;3.22;1.13;;;;;;;10.94;42.21;93867.75;4969819;28;20137;-39
2021/01/22 10:11:38;;;;;;;2.42;0.98;;;;;;;11.12;41.68;93862.38;4964685;28;20437;-39
2021/01/22 10:14:05;;;;;;;2.85;0.98;;;;;;;11.14;41.68;93859.28;4974523;28;20046;-40
2021/01/22 10:16:31;;;;;;;2.40;1.10;;;;;;;10.85;42.29;93853.84;4953457;28;20051;-39
2021/01/22 10:18:58;;;;;;;3.95;1.50;;;;;;;10.98;42.31;93846.91;4971980;28;20051;-39
2021/01/22 10:21:24;;;;;;;3.58;1.55;;;;;;;11.13;41.81;93842.28;4977905;28;20081;-38
2021/01/22 10:23:52;;;;;;;5.00;1.50;;;;;;;11.25;41.76;93838.41;4971373;28;20059;-39
2021/01/22 10:26:23;;;;;;;6.35;1.25;;;;;;;11.36;41.79;93825.63;4969780;28;20413;-38
2021/01/22 10:28:50;;;;;;;2.83;1.20;;;;;;;11.39;41.63;93821.38;4971967;28;20047;-39
2021/01/22 10:31:17;;;;;;;3.40;1.20;;;;;;;11.50;41.68;93822.13;4983393;28;20053;-39
2021/01/22 10:33:45;;;;;;;4.82;1.35;;;;;;;11.35;41.93;93804.38;4975395;28;20059;-38
2021/01/22 10:36:12;;;;;;;5.72;0.95;;;;;;;11.51;41.79;93807.44;4972311;28;20197;-39
2021/01/22 10:38:39;;;;;;;2.75;1.00;;;;;;;11.64;41.07;93813.22;4975631;28;20067;-38
2021/01/22 10:41:06;;;;;;;3.65;1.20;;;;;;;11.54;41.23;93800.47;4968577;28;20058;-39
2021/01/22 10:43:32;;;;;;;7.70;1.10;;;;;;;11.36;41.64;93805.91;4971762;28;20053;-38
2021/01/22 10:45:59;;;;;;;4.97;1.30;;;;;;;11.49;41.78;93809.75;4968121;28;20046;-39
2021/01/22 10:48:26;;;;;;;2.35;1.00;;;;;;;11.35;41.71;93804.38;4967821;28;20047;-38
2021/01/22 10:50:54;;;;;;;4.28;1.10;;;;;;;11.36;41.97;93803.22;4970845;28;20105;-39
2021/01/22 10:53:23;;;;;;;3.83;1.10;;;;;;;11.29;42.43;93790.44;4968781;28;20166;-39
2021/01/22 10:55:50;;;;;;;3.30;1.17;;;;;;;11.39;41.93;93794.31;4962952;28;20453;-39
2021/01/22 10:58:17;;;;;;;3.08;1.10;;;;;;;11.41;41.75;93781.94;4970129;28;20492;-39
2021/01/22 11:00:44;;;;;;;2.72;1.05;;;;;;;11.42;42.29;93783.47;4970248;28;20066;-39
2021/01/22 11:03:10;;;;;;;3.88;1.30;;;;;;;11.60;41.64;93788.06;4970191;28;20511;-39
2021/01/22 11:05:38;;;;;;;3.03;1.30;;;;;;;11.55;41.93;93780.34;4965835;28;20066;-40
2021/01/22 11:08:05;;;;;;;2.20;1.08;;;;;;;11.54;41.83;93785.00;4969176;28;20034;-38
2021/01/22 11:10:32;;;;;;;4.18;1.13;;;;;;;11.79;41.48;93779.50;4968439;28;20061;-38
2021/01/22 11:12:58;;;;;;;3.53;1.00;;;;;;;11.98;40.78;93766.69;4970180;28;20070;-39
2021/01/22 11:15:25;;;;;;;2.35;0.82;;;;;;;12.09;40.24;93751.16;4968245;28;20463;-39
2021/01/22 11:17:51;;;;;;;1.77;0.90;;;;;;;11.95;39.84;93748.50;4970337;28;20651;-38
2021/01/22 11:20:18;;;;;;;2.03;0.80;;;;;;;11.99;39.88;93741.13;4975286;28;20050;-39
2021/01/22 11:22:46;;;;;;;1.10;0.60;;;;;;;12.00;39.81;93729.13;4971819;28;20547;-39
2021/01/22 11:25:15;;;;;;;1.45;0.70;;;;;;;12.09;39.65;93727.53;4973581;28;20046;-39
2021/01/22 11:27:42;;;;;;;0.77;0.70;;;;;;;12.17;39.57;93722.84;4969660;28;20137;-39
2021/01/22 11:30:10;;;;;;;1.02;0.70;;;;;;;12.39;39.27;93724.25;4969096;28;20057;-39
2021/01/22 11:32:37;;;;;;;1.30;0.73;;;;;;;12.40;39.04;93725.78;4969249;28;20050;-39
2021/01/22 11:35:09;;;;;;;0.82;0.65;;;;;;;12.81;38.33;93733.28;4968890;28;20517;-40
2021/01/22 11:37:39;;;;;;;1.90;0.80;;;;;;;13.74;35.87;93705.22;4965908;28;20055;-40
2021/01/22 11:40:07;;;;;;;0.90;0.70;;;;;;;15.86;32.22;93730.75;4971665;28;20416;-40
2021/01/22 11:42:34;;;;;;;2.97;0.85;;;;;;;15.18;32.79;93734.69;4970248;28;20074;-40
2021/01/22 11:45:01;;;;;;;3.08;0.73;;;;;;;14.62;33.65;93728.16;4969613;28;20053;-40
2021/01/22 11:47:28;;;;;;;2.20;0.90;;;;;;;15.23;33.83;93733.44;4969653;28;20412;-38